sensor_id;sensor_type;location;lat;lon;timestamp;temperature;humidity
75153;HTU21D;63734;45.218;36.708;2023-03-29T00:01:02;6.55;83.95
75153;HTU21D;63734;45.218;36.708;2023-03-29T00:03:31;6.53;83.02
75153;HTU21D;63734;45.218;36.708;2023-03-29T00:05:59;6.51;83.57
75153;HTU21D;63734;45.218;36.708;2023-03-29T00:08:31;6.53;83.37
75153;HTU21D;63734;45.218;36.708;2023-03-29T00:10:59;6.51;82.71
75153;HTU21D;63734;45.218;36.708;2023-03-29T00:13:26;6.48;82.11
75153;HTU21D;63734;45.218;36.708;2023-03-29T00:15:53;6.45;82.65
75153;HTU21D;63734;45.218;36.708;2023-03-29T00:18:19;6.44;82.46
75153;HTU21D;63734;45.218;36.708;2023-03-29T00:20:45;6.41;82.33
75153;HTU21D;63734;45.218;36.708;2023-03-29T00:23:11;6.40;82.36
75153;HTU21D;63734;45.218;36.708;2023-03-29T00:25:43;6.35;82.01
75153;HTU21D;63734;45.218;36.708;2023-03-29T00:28:09;6.34;82.09
75153;HTU21D;63734;45.218;36.708;2023-03-29T00:30:35;6.36;82.93
75153;HTU21D;63734;45.218;36.708;2023-03-29T00:33:01;6.38;82.99
75153;HTU21D;63734;45.218;36.708;2023-03-29T00:35:27;6.35;82.03
75153;HTU21D;63734;45.218;36.708;2023-03-29T00:37:53;6.34;81.55
75153;HTU21D;63734;45.218;36.708;2023-03-29T00:40:19;6.31;82.10
75153;HTU21D;63734;45.218;36.708;2023-03-29T00:42:45;6.31;82.25
75153;HTU21D;63734;45.218;36.708;2023-03-29T00:47:50;6.25;83.29
75153;HTU21D;63734;45.218;36.708;2023-03-29T00:50:41;6.28;84.02
75153;HTU21D;63734;45.218;36.708;2023-03-29T00:55:46;6.22;84.71
75153;HTU21D;63734;45.218;36.708;2023-03-29T00:58:16;6.24;85.42
75153;HTU21D;63734;45.218;36.708;2023-03-29T01:00:53;6.26;85.00
75153;HTU21D;63734;45.218;36.708;2023-03-29T01:03:25;6.24;83.90
75153;HTU21D;63734;45.218;36.708;2023-03-29T01:05:58;6.22;84.00
75153;HTU21D;63734;45.218;36.708;2023-03-29T01:08:30;6.20;83.09
75153;HTU21D;63734;45.218;36.708;2023-03-29T01:11:05;6.14;82.76
75153;HTU21D;63734;45.218;36.708;2023-03-29T01:13:38;6.19;83.13
75153;HTU21D;63734;45.218;36.708;2023-03-29T01:16:07;6.14;82.60
75153;HTU21D;63734;45.218;36.708;2023-03-29T01:18:34;6.15;83.84
75153;HTU21D;63734;45.218;36.708;2023-03-29T01:21:29;6.21;84.71
75153;HTU21D;63734;45.218;36.708;2023-03-29T01:29:43;6.04;83.39
75153;HTU21D;63734;45.218;36.708;2023-03-29T01:35:14;6.04;84.04
75153;HTU21D;63734;45.218;36.708;2023-03-29T01:37:46;6.02;83.56
75153;HTU21D;63734;45.218;36.708;2023-03-29T01:40:14;5.99;82.52
75153;HTU21D;63734;45.218;36.708;2023-03-29T01:43:23;5.96;83.07
75153;HTU21D;63734;45.218;36.708;2023-03-29T01:46:02;5.96;83.31
75153;HTU21D;63734;45.218;36.708;2023-03-29T01:51:07;5.85;82.12
75153;HTU21D;63734;45.218;36.708;2023-03-29T01:56:12;5.78;81.90
75153;HTU21D;63734;45.218;36.708;2023-03-29T01:58:43;5.77;82.10
75153;HTU21D;63734;45.218;36.708;2023-03-29T02:01:11;5.80;82.84
75153;HTU21D;63734;45.218;36.708;2023-03-29T02:03:41;5.82;82.71
75153;HTU21D;63734;45.218;36.708;2023-03-29T02:06:10;5.82;82.46
75153;HTU21D;63734;45.218;36.708;2023-03-29T02:08:41;5.77;81.05
75153;HTU21D;63734;45.218;36.708;2023-03-29T02:11:08;5.71;80.54
75153;HTU21D;63734;45.218;36.708;2023-03-29T02:13:34;5.65;79.36
75153;HTU21D;63734;45.218;36.708;2023-03-29T02:16:03;5.60;79.65
75153;HTU21D;63734;45.218;36.708;2023-03-29T02:18:33;5.62;79.69
75153;HTU21D;63734;45.218;36.708;2023-03-29T02:21:01;5.60;79.06
75153;HTU21D;63734;45.218;36.708;2023-03-29T02:23:32;5.60;79.62
75153;HTU21D;63734;45.218;36.708;2023-03-29T02:25:59;5.56;79.31
75153;HTU21D;63734;45.218;36.708;2023-03-29T02:28:28;5.54;79.96
75153;HTU21D;63734;45.218;36.708;2023-03-29T02:31:00;5.50;79.69
75153;HTU21D;63734;45.218;36.708;2023-03-29T02:33:38;5.43;78.74
75153;HTU21D;63734;45.218;36.708;2023-03-29T02:36:18;5.38;79.12
75153;HTU21D;63734;45.218;36.708;2023-03-29T02:38:47;5.36;79.35
75153;HTU21D;63734;45.218;36.708;2023-03-29T02:41:14;5.34;79.25
75153;HTU21D;63734;45.218;36.708;2023-03-29T02:43:42;5.27;78.06
75153;HTU21D;63734;45.218;36.708;2023-03-29T02:46:10;5.23;79.09
75153;HTU21D;63734;45.218;36.708;2023-03-29T02:48:37;5.20;78.72
75153;HTU21D;63734;45.218;36.708;2023-03-29T02:51:10;5.19;79.61
75153;HTU21D;63734;45.218;36.708;2023-03-29T02:53:42;5.21;79.98
75153;HTU21D;63734;45.218;36.708;2023-03-29T02:56:09;5.20;79.08
75153;HTU21D;63734;45.218;36.708;2023-03-29T02:58:35;5.18;78.99
75153;HTU21D;63734;45.218;36.708;2023-03-29T03:01:02;5.17;78.56
75153;HTU21D;63734;45.218;36.708;2023-03-29T03:03:30;5.16;77.99
75153;HTU21D;63734;45.218;36.708;2023-03-29T03:05:59;5.15;78.91
75153;HTU21D;63734;45.218;36.708;2023-03-29T03:08:28;5.17;79.06
75153;HTU21D;63734;45.218;36.708;2023-03-29T03:10:54;5.16;78.69
75153;HTU21D;63734;45.218;36.708;2023-03-29T03:13:20;5.13;78.90
75153;HTU21D;63734;45.218;36.708;2023-03-29T03:15:47;5.12;79.29
75153;HTU21D;63734;45.218;36.708;2023-03-29T03:18:14;5.11;79.21
75153;HTU21D;63734;45.218;36.708;2023-03-29T03:20:42;5.08;79.30
75153;HTU21D;63734;45.218;36.708;2023-03-29T03:23:11;5.04;79.72
75153;HTU21D;63734;45.218;36.708;2023-03-29T03:25:37;5.07;80.54
75153;HTU21D;63734;45.218;36.708;2023-03-29T03:28:04;5.06;80.56
75153;HTU21D;63734;45.218;36.708;2023-03-29T03:30:31;5.05;80.42
75153;HTU21D;63734;45.218;36.708;2023-03-29T03:33:16;5.03;80.96
75153;HTU21D;63734;45.218;36.708;2023-03-29T03:35:49;4.96;80.90
75153;HTU21D;63734;45.218;36.708;2023-03-29T03:38:29;4.93;81.59
75153;HTU21D;63734;45.218;36.708;2023-03-29T03:40:59;4.92;81.77
75153;HTU21D;63734;45.218;36.708;2023-03-29T03:43:28;4.89;81.94
75153;HTU21D;63734;45.218;36.708;2023-03-29T03:45:55;4.84;82.19
75153;HTU21D;63734;45.218;36.708;2023-03-29T03:48:24;4.84;82.85
75153;HTU21D;63734;45.218;36.708;2023-03-29T03:51:16;4.90;83.39
75153;HTU21D;63734;45.218;36.708;2023-03-29T03:53:43;4.88;83.03
75153;HTU21D;63734;45.218;36.708;2023-03-29T03:56:32;4.88;83.79
75153;HTU21D;63734;45.218;36.708;2023-03-29T03:59:07;4.78;82.91
75153;HTU21D;63734;45.218;36.708;2023-03-29T04:01:57;4.67;83.44
75153;HTU21D;63734;45.218;36.708;2023-03-29T04:04:23;4.60;83.73
75153;HTU21D;63734;45.218;36.708;2023-03-29T04:07:06;4.57;84.68
75153;HTU21D;63734;45.218;36.708;2023-03-29T04:09:52;4.53;84.51
75153;HTU21D;63734;45.218;36.708;2023-03-29T04:12:30;4.49;84.50
75153;HTU21D;63734;45.218;36.708;2023-03-29T04:14:57;4.47;84.87
75153;HTU21D;63734;45.218;36.708;2023-03-29T04:17:25;4.41;84.77
75153;HTU21D;63734;45.218;36.708;2023-03-29T04:19:54;4.36;84.18
75153;HTU21D;63734;45.218;36.708;2023-03-29T04:22:23;4.30;84.31
75153;HTU21D;63734;45.218;36.708;2023-03-29T04:24:51;4.29;84.54
75153;HTU21D;63734;45.218;36.708;2023-03-29T04:27:43;4.22;83.77
75153;HTU21D;63734;45.218;36.708;2023-03-29T04:30:28;4.16;84.18
75153;HTU21D;63734;45.218;36.708;2023-03-29T04:33:23;4.18;84.84
75153;HTU21D;63734;45.218;36.708;2023-03-29T04:35:57;4.16;84.94
75153;HTU21D;63734;45.218;36.708;2023-03-29T04:38:23;4.12;85.05
75153;HTU21D;63734;45.218;36.708;2023-03-29T04:40:50;4.12;85.21
75153;HTU21D;63734;45.218;36.708;2023-03-29T04:43:37;4.09;85.38
75153;HTU21D;63734;45.218;36.708;2023-03-29T04:46:15;4.13;85.71
75153;HTU21D;63734;45.218;36.708;2023-03-29T04:49:03;4.10;85.72
75153;HTU21D;63734;45.218;36.708;2023-03-29T04:51:37;4.05;86.13
75153;HTU21D;63734;45.218;36.708;2023-03-29T04:54:04;4.07;86.61
75153;HTU21D;63734;45.218;36.708;2023-03-29T04:56:40;4.08;87.13
75153;HTU21D;63734;45.218;36.708;2023-03-29T04:59:30;4.07;86.97
75153;HTU21D;63734;45.218;36.708;2023-03-29T05:01:59;4.04;87.19
75153;HTU21D;63734;45.218;36.708;2023-03-29T05:04:25;4.00;87.08
75153;HTU21D;63734;45.218;36.708;2023-03-29T05:07:03;3.98;87.64
75153;HTU21D;63734;45.218;36.708;2023-03-29T05:09:31;3.97;87.22
75153;HTU21D;63734;45.218;36.708;2023-03-29T05:11:59;3.97;87.19
75153;HTU21D;63734;45.218;36.708;2023-03-29T05:14:28;3.99;87.73
75153;HTU21D;63734;45.218;36.708;2023-03-29T05:16:55;3.94;86.74
75153;HTU21D;63734;45.218;36.708;2023-03-29T05:19:22;3.89;86.83
75153;HTU21D;63734;45.218;36.708;2023-03-29T05:21:48;3.90;87.25
75153;HTU21D;63734;45.218;36.708;2023-03-29T05:24:22;3.94;87.33
75153;HTU21D;63734;45.218;36.708;2023-03-29T05:26:57;3.93;86.81
75153;HTU21D;63734;45.218;36.708;2023-03-29T05:29:25;3.93;86.09
75153;HTU21D;63734;45.218;36.708;2023-03-29T05:31:59;3.93;86.38
75153;HTU21D;63734;45.218;36.708;2023-03-29T05:34:26;3.93;85.82
75153;HTU21D;63734;45.218;36.708;2023-03-29T05:36:57;3.99;86.30
75153;HTU21D;63734;45.218;36.708;2023-03-29T05:39:27;4.06;86.86
75153;HTU21D;63734;45.218;36.708;2023-03-29T05:41:54;4.09;85.93
75153;HTU21D;63734;45.218;36.708;2023-03-29T05:44:26;4.05;85.82
75153;HTU21D;63734;45.218;36.708;2023-03-29T05:46:59;4.10;86.41
75153;HTU21D;63734;45.218;36.708;2023-03-29T05:49:26;4.19;86.82
75153;HTU21D;63734;45.218;36.708;2023-03-29T05:52:00;4.27;86.52
75153;HTU21D;63734;45.218;36.708;2023-03-29T05:54:30;4.27;85.86
75153;HTU21D;63734;45.218;36.708;2023-03-29T05:57:00;4.26;85.26
75153;HTU21D;63734;45.218;36.708;2023-03-29T05:59:26;4.28;85.76
75153;HTU21D;63734;45.218;36.708;2023-03-29T06:01:54;4.34;85.55
75153;HTU21D;63734;45.218;36.708;2023-03-29T06:04:21;4.32;84.03
75153;HTU21D;63734;45.218;36.708;2023-03-29T06:07:04;4.34;84.28
75153;HTU21D;63734;45.218;36.708;2023-03-29T06:09:33;4.31;82.46
75153;HTU21D;63734;45.218;36.708;2023-03-29T06:12:02;4.33;83.12
75153;HTU21D;63734;45.218;36.708;2023-03-29T06:14:41;4.36;82.02
75153;HTU21D;63734;45.218;36.708;2023-03-29T06:17:20;4.37;82.19
75153;HTU21D;63734;45.218;36.708;2023-03-29T06:19:47;4.41;83.47
75153;HTU21D;63734;45.218;36.708;2023-03-29T06:22:15;4.44;82.52
75153;HTU21D;63734;45.218;36.708;2023-03-29T06:24:41;4.44;83.32
75153;HTU21D;63734;45.218;36.708;2023-03-29T06:27:15;4.45;82.08
75153;HTU21D;63734;45.218;36.708;2023-03-29T06:29:42;4.39;82.71
75153;HTU21D;63734;45.218;36.708;2023-03-29T06:32:09;4.38;83.26
75153;HTU21D;63734;45.218;36.708;2023-03-29T06:34:54;4.43;83.59
75153;HTU21D;63734;45.218;36.708;2023-03-29T06:37:33;4.36;82.33
75153;HTU21D;63734;45.218;36.708;2023-03-29T06:40:12;4.33;83.14
75153;HTU21D;63734;45.218;36.708;2023-03-29T06:42:42;4.39;84.58
75153;HTU21D;63734;45.218;36.708;2023-03-29T06:45:30;4.42;84.16
75153;HTU21D;63734;45.218;36.708;2023-03-29T06:47:58;4.39;83.94
75153;HTU21D;63734;45.218;36.708;2023-03-29T06:50:24;4.30;82.20
75153;HTU21D;63734;45.218;36.708;2023-03-29T06:53:06;4.24;83.08
75153;HTU21D;63734;45.218;36.708;2023-03-29T06:55:33;4.29;82.06
75153;HTU21D;63734;45.218;36.708;2023-03-29T06:58:18;4.34;81.45
75153;HTU21D;63734;45.218;36.708;2023-03-29T07:00:45;4.41;81.54
75153;HTU21D;63734;45.218;36.708;2023-03-29T07:03:27;4.45;80.73
75153;HTU21D;63734;45.218;36.708;2023-03-29T07:06:02;4.43;79.64
75153;HTU21D;63734;45.218;36.708;2023-03-29T07:08:37;4.46;79.14
75153;HTU21D;63734;45.218;36.708;2023-03-29T07:11:16;4.42;79.24
75153;HTU21D;63734;45.218;36.708;2023-03-29T07:13:52;4.42;79.28
75153;HTU21D;63734;45.218;36.708;2023-03-29T07:16:19;4.39;79.85
75153;HTU21D;63734;45.218;36.708;2023-03-29T07:19:15;4.37;80.14
75153;HTU21D;63734;45.218;36.708;2023-03-29T07:21:54;4.38;81.45
75153;HTU21D;63734;45.218;36.708;2023-03-29T07:24:33;4.44;80.73
75153;HTU21D;63734;45.218;36.708;2023-03-29T07:27:00;4.45;80.72
75153;HTU21D;63734;45.218;36.708;2023-03-29T07:29:30;4.48;79.98
75153;HTU21D;63734;45.218;36.708;2023-03-29T07:31:58;4.48;79.46
75153;HTU21D;63734;45.218;36.708;2023-03-29T07:34:46;4.53;79.21
75153;HTU21D;63734;45.218;36.708;2023-03-29T07:37:24;4.53;79.11
75153;HTU21D;63734;45.218;36.708;2023-03-29T07:39:52;4.60;79.92
75153;HTU21D;63734;45.218;36.708;2023-03-29T07:42:40;4.62;78.49
75153;HTU21D;63734;45.218;36.708;2023-03-29T07:45:12;4.64;78.15
75153;HTU21D;63734;45.218;36.708;2023-03-29T07:47:56;4.68;78.50
75153;HTU21D;63734;45.218;36.708;2023-03-29T07:50:26;4.68;77.18
75153;HTU21D;63734;45.218;36.708;2023-03-29T07:52:59;4.66;77.56
75153;HTU21D;63734;45.218;36.708;2023-03-29T07:55:28;4.64;78.24
75153;HTU21D;63734;45.218;36.708;2023-03-29T07:58:14;4.69;79.65
75153;HTU21D;63734;45.218;36.708;2023-03-29T08:00:41;4.76;79.91
75153;HTU21D;63734;45.218;36.708;2023-03-29T08:03:33;4.73;77.90
75153;HTU21D;63734;45.218;36.708;2023-03-29T08:06:01;4.63;77.61
75153;HTU21D;63734;45.218;36.708;2023-03-29T08:08:27;4.58;77.25
75153;HTU21D;63734;45.218;36.708;2023-03-29T08:10:57;4.58;76.90
75153;HTU21D;63734;45.218;36.708;2023-03-29T08:13:49;4.62;78.37
75153;HTU21D;63734;45.218;36.708;2023-03-29T08:16:25;4.67;78.75
75153;HTU21D;63734;45.218;36.708;2023-03-29T08:19:01;4.69;78.63
75153;HTU21D;63734;45.218;36.708;2023-03-29T08:21:42;4.66;77.54
75153;HTU21D;63734;45.218;36.708;2023-03-29T08:24:08;4.74;78.21
75153;HTU21D;63734;45.218;36.708;2023-03-29T08:26:43;4.77;77.23
75153;HTU21D;63734;45.218;36.708;2023-03-29T08:29:10;4.76;77.43
75153;HTU21D;63734;45.218;36.708;2023-03-29T08:31:56;4.77;77.56
75153;HTU21D;63734;45.218;36.708;2023-03-29T08:34:23;4.75;76.82
75153;HTU21D;63734;45.218;36.708;2023-03-29T08:37:13;4.76;76.95
75153;HTU21D;63734;45.218;36.708;2023-03-29T08:39:44;4.81;77.11
75153;HTU21D;63734;45.218;36.708;2023-03-29T08:42:44;4.78;75.25
75153;HTU21D;63734;45.218;36.708;2023-03-29T08:45:24;4.75;75.71
75153;HTU21D;63734;45.218;36.708;2023-03-29T08:50:54;4.77;75.92
75153;HTU21D;63734;45.218;36.708;2023-03-29T08:53:30;4.78;74.95
75153;HTU21D;63734;45.218;36.708;2023-03-29T08:56:24;4.88;77.00
75153;HTU21D;63734;45.218;36.708;2023-03-29T08:59:26;4.95;75.76
75153;HTU21D;63734;45.218;36.708;2023-03-29T09:01:57;5.00;75.83
75153;HTU21D;63734;45.218;36.708;2023-03-29T09:04:30;5.04;73.91
75153;HTU21D;63734;45.218;36.708;2023-03-29T09:07:09;4.91;73.42
75153;HTU21D;63734;45.218;36.708;2023-03-29T09:09:41;4.89;75.00
75153;HTU21D;63734;45.218;36.708;2023-03-29T09:12:47;4.89;73.85
75153;HTU21D;63734;45.218;36.708;2023-03-29T09:15:29;4.86;73.22
75153;HTU21D;63734;45.218;36.708;2023-03-29T09:18:31;4.83;73.67
75153;HTU21D;63734;45.218;36.708;2023-03-29T09:23:47;4.82;75.78
75153;HTU21D;63734;45.218;36.708;2023-03-29T09:27:01;4.89;75.44
75153;HTU21D;63734;45.218;36.708;2023-03-29T09:30:28;4.90;75.54
75153;HTU21D;63734;45.218;36.708;2023-03-29T09:33:24;4.90;75.59
75153;HTU21D;63734;45.218;36.708;2023-03-29T09:36:17;4.89;75.73
75153;HTU21D;63734;45.218;36.708;2023-03-29T09:38:49;4.89;76.13
75153;HTU21D;63734;45.218;36.708;2023-03-29T09:43:54;4.96;76.77
75153;HTU21D;63734;45.218;36.708;2023-03-29T09:46:36;4.96;76.95
75153;HTU21D;63734;45.218;36.708;2023-03-29T09:49:19;4.96;76.62
75153;HTU21D;63734;45.218;36.708;2023-03-29T09:51:48;5.02;76.98
75153;HTU21D;63734;45.218;36.708;2023-03-29T09:54:15;4.95;74.89
75153;HTU21D;63734;45.218;36.708;2023-03-29T09:57:00;4.93;76.34
75153;HTU21D;63734;45.218;36.708;2023-03-29T09:59:26;4.96;76.21
75153;HTU21D;63734;45.218;36.708;2023-03-29T10:01:52;5.01;75.95
75153;HTU21D;63734;45.218;36.708;2023-03-29T10:04:29;5.01;75.80
75153;HTU21D;63734;45.218;36.708;2023-03-29T10:06:59;5.02;75.98
75153;HTU21D;63734;45.218;36.708;2023-03-29T10:09:28;5.06;77.29
75153;HTU21D;63734;45.218;36.708;2023-03-29T10:12:10;5.04;75.50
75153;HTU21D;63734;45.218;36.708;2023-03-29T10:14:45;4.96;75.54
75153;HTU21D;63734;45.218;36.708;2023-03-29T10:17:21;4.90;74.78
75153;HTU21D;63734;45.218;36.708;2023-03-29T10:19:55;4.92;76.14
75153;HTU21D;63734;45.218;36.708;2023-03-29T10:22:24;4.97;76.72
75153;HTU21D;63734;45.218;36.708;2023-03-29T10:24:52;5.04;75.86
75153;HTU21D;63734;45.218;36.708;2023-03-29T10:27:26;5.06;76.46
75153;HTU21D;63734;45.218;36.708;2023-03-29T10:29:54;5.08;75.88
75153;HTU21D;63734;45.218;36.708;2023-03-29T10:34:48;5.05;74.31
75153;HTU21D;63734;45.218;36.708;2023-03-29T10:37:18;5.03;75.67
75153;HTU21D;63734;45.218;36.708;2023-03-29T10:39:47;5.04;75.08
75153;HTU21D;63734;45.218;36.708;2023-03-29T10:42:18;4.97;75.32
75153;HTU21D;63734;45.218;36.708;2023-03-29T10:44:58;4.98;74.62
75153;HTU21D;63734;45.218;36.708;2023-03-29T10:47:24;4.95;72.79
75153;HTU21D;63734;45.218;36.708;2023-03-29T10:49:55;4.89;74.41
75153;HTU21D;63734;45.218;36.708;2023-03-29T10:52:24;4.94;75.16
75153;HTU21D;63734;45.218;36.708;2023-03-29T10:54:52;5.02;74.21
75153;HTU21D;63734;45.218;36.708;2023-03-29T10:57:35;5.00;74.44
75153;HTU21D;63734;45.218;36.708;2023-03-29T11:00:08;4.97;74.60
75153;HTU21D;63734;45.218;36.708;2023-03-29T11:05:32;4.96;75.05
75153;HTU21D;63734;45.218;36.708;2023-03-29T11:21:38;5.01;75.88
75153;HTU21D;63734;45.218;36.708;2023-03-29T11:27:28;4.98;75.83
75153;HTU21D;63734;45.218;36.708;2023-03-29T11:38:33;4.89;75.63
75153;HTU21D;63734;45.218;36.708;2023-03-29T11:41:21;4.90;76.62
75153;HTU21D;63734;45.218;36.708;2023-03-29T11:48:53;5.02;77.04
75153;HTU21D;63734;45.218;36.708;2023-03-29T11:51:41;5.00;75.80
75153;HTU21D;63734;45.218;36.708;2023-03-29T11:57:23;4.94;75.99
75153;HTU21D;63734;45.218;36.708;2023-03-29T12:00:09;4.96;76.14
75153;HTU21D;63734;45.218;36.708;2023-03-29T12:05:25;5.03;76.86
75153;HTU21D;63734;45.218;36.708;2023-03-29T12:10:29;4.96;76.23
75153;HTU21D;63734;45.218;36.708;2023-03-29T12:13:11;4.94;76.09
75153;HTU21D;63734;45.218;36.708;2023-03-29T12:15:41;4.89;75.89
75153;HTU21D;63734;45.218;36.708;2023-03-29T12:18:29;4.88;76.47
75153;HTU21D;63734;45.218;36.708;2023-03-29T12:21:00;4.87;76.71
75153;HTU21D;63734;45.218;36.708;2023-03-29T12:23:30;4.88;77.03
75153;HTU21D;63734;45.218;36.708;2023-03-29T12:38:22;4.97;76.52
75153;HTU21D;63734;45.218;36.708;2023-03-29T12:41:19;4.94;76.06
75153;HTU21D;63734;45.218;36.708;2023-03-29T12:44:10;4.89;75.52
75153;HTU21D;63734;45.218;36.708;2023-03-29T12:47:20;4.92;76.76
75153;HTU21D;63734;45.218;36.708;2023-03-29T12:49:55;5.00;75.92
75153;HTU21D;63734;45.218;36.708;2023-03-29T12:52:23;4.95;74.77
75153;HTU21D;63734;45.218;36.708;2023-03-29T12:54:56;4.95;75.56
75153;HTU21D;63734;45.218;36.708;2023-03-29T12:57:40;4.95;75.70
75153;HTU21D;63734;45.218;36.708;2023-03-29T13:00:19;4.95;75.62
75153;HTU21D;63734;45.218;36.708;2023-03-29T13:03:03;4.95;76.24
75153;HTU21D;63734;45.218;36.708;2023-03-29T13:05:33;4.95;75.72
75153;HTU21D;63734;45.218;36.708;2023-03-29T13:08:43;4.89;74.31
75153;HTU21D;63734;45.218;36.708;2023-03-29T13:11:03;4.88;75.70
75153;HTU21D;63734;45.218;36.708;2023-03-29T13:13:33;4.90;76.37
75153;HTU21D;63734;45.218;36.708;2023-03-29T13:16:15;4.95;75.92
75153;HTU21D;63734;45.218;36.708;2023-03-29T13:35:33;5.01;73.51
75153;HTU21D;63734;45.218;36.708;2023-03-29T13:38:18;4.98;74.64
75153;HTU21D;63734;45.218;36.708;2023-03-29T13:46:01;5.00;75.31
75153;HTU21D;63734;45.218;36.708;2023-03-29T13:48:51;5.00;74.36
75153;HTU21D;63734;45.218;36.708;2023-03-29T13:51:25;4.98;74.59
75153;HTU21D;63734;45.218;36.708;2023-03-29T13:53:56;5.00;75.01
75153;HTU21D;63734;45.218;36.708;2023-03-29T13:59:29;5.02;73.92
75153;HTU21D;63734;45.218;36.708;2023-03-29T14:01:58;5.04;74.38
75153;HTU21D;63734;45.218;36.708;2023-03-29T14:04:37;5.04;74.05
75153;HTU21D;63734;45.218;36.708;2023-03-29T14:07:07;5.06;74.73
75153;HTU21D;63734;45.218;36.708;2023-03-29T14:09:40;5.11;75.37
75153;HTU21D;63734;45.218;36.708;2023-03-29T14:12:11;5.13;73.86
75153;HTU21D;63734;45.218;36.708;2023-03-29T14:14:41;5.11;73.99
75153;HTU21D;63734;45.218;36.708;2023-03-29T14:17:20;5.05;73.16
75153;HTU21D;63734;45.218;36.708;2023-03-29T14:19:46;5.04;73.77
75153;HTU21D;63734;45.218;36.708;2023-03-29T14:22:15;5.10;74.60
75153;HTU21D;63734;45.218;36.708;2023-03-29T14:25:04;5.10;73.45
75153;HTU21D;63734;45.218;36.708;2023-03-29T14:27:31;5.11;74.45
75153;HTU21D;63734;45.218;36.708;2023-03-29T14:30:00;5.11;74.68
75153;HTU21D;63734;45.218;36.708;2023-03-29T14:32:28;5.11;74.61
75153;HTU21D;63734;45.218;36.708;2023-03-29T14:34:55;5.09;74.16
75153;HTU21D;63734;45.218;36.708;2023-03-29T14:37:24;5.10;74.96
75153;HTU21D;63734;45.218;36.708;2023-03-29T14:39:50;5.18;74.99
75153;HTU21D;63734;45.218;36.708;2023-03-29T14:42:19;5.16;74.32
75153;HTU21D;63734;45.218;36.708;2023-03-29T14:44:47;5.17;74.44
75153;HTU21D;63734;45.218;36.708;2023-03-29T14:47:26;5.18;74.02
75153;HTU21D;63734;45.218;36.708;2023-03-29T14:49:54;5.20;74.25
75153;HTU21D;63734;45.218;36.708;2023-03-29T14:52:24;5.21;73.61
75153;HTU21D;63734;45.218;36.708;2023-03-29T14:54:52;5.20;73.73
75153;HTU21D;63734;45.218;36.708;2023-03-29T14:57:24;5.19;73.91
75153;HTU21D;63734;45.218;36.708;2023-03-29T14:59:57;5.19;73.57
75153;HTU21D;63734;45.218;36.708;2023-03-29T15:02:31;5.16;74.15
75153;HTU21D;63734;45.218;36.708;2023-03-29T15:05:05;5.17;74.15
75153;HTU21D;63734;45.218;36.708;2023-03-29T15:07:34;5.13;73.96
75153;HTU21D;63734;45.218;36.708;2023-03-29T15:10:03;5.10;73.99
75153;HTU21D;63734;45.218;36.708;2023-03-29T15:12:31;5.08;74.54
75153;HTU21D;63734;45.218;36.708;2023-03-29T15:15:00;4.98;74.66
75153;HTU21D;63734;45.218;36.708;2023-03-29T15:17:38;4.96;75.73
75153;HTU21D;63734;45.218;36.708;2023-03-29T15:20:15;4.93;74.89
75153;HTU21D;63734;45.218;36.708;2023-03-29T15:25:26;4.86;75.25
75153;HTU21D;63734;45.218;36.708;2023-03-29T15:27:55;4.84;75.78
75153;HTU21D;63734;45.218;36.708;2023-03-29T15:30:31;4.82;76.24
75153;HTU21D;63734;45.218;36.708;2023-03-29T15:33:32;4.88;77.02
75153;HTU21D;63734;45.218;36.708;2023-03-29T15:35:59;4.88;76.20
75153;HTU21D;63734;45.218;36.708;2023-03-29T15:38:26;4.83;75.75
75153;HTU21D;63734;45.218;36.708;2023-03-29T15:40:59;4.82;75.55
75153;HTU21D;63734;45.218;36.708;2023-03-29T15:43:26;4.84;75.92
75153;HTU21D;63734;45.218;36.708;2023-03-29T15:45:53;4.81;75.31
75153;HTU21D;63734;45.218;36.708;2023-03-29T15:48:29;4.79;75.50
75153;HTU21D;63734;45.218;36.708;2023-03-29T15:50:58;4.80;76.57
75153;HTU21D;63734;45.218;36.708;2023-03-29T15:53:25;4.79;76.34
75153;HTU21D;63734;45.218;36.708;2023-03-29T15:55:53;4.81;76.40
75153;HTU21D;63734;45.218;36.708;2023-03-29T15:58:24;4.80;74.74
75153;HTU21D;63734;45.218;36.708;2023-03-29T16:00:59;4.81;74.76
75153;HTU21D;63734;45.218;36.708;2023-03-29T16:03:28;4.81;75.15
75153;HTU21D;63734;45.218;36.708;2023-03-29T16:05:54;4.84;76.12
75153;HTU21D;63734;45.218;36.708;2023-03-29T16:08:22;4.89;76.80
75153;HTU21D;63734;45.218;36.708;2023-03-29T16:10:49;4.90;75.70
75153;HTU21D;63734;45.218;36.708;2023-03-29T16:13:15;4.86;75.64
75153;HTU21D;63734;45.218;36.708;2023-03-29T16:15:42;4.84;76.28
75153;HTU21D;63734;45.218;36.708;2023-03-29T16:18:08;4.84;76.43
75153;HTU21D;63734;45.218;36.708;2023-03-29T16:20:34;4.87;75.79
75153;HTU21D;63734;45.218;36.708;2023-03-29T16:23:00;4.83;75.65
75153;HTU21D;63734;45.218;36.708;2023-03-29T16:25:34;4.86;77.10
75153;HTU21D;63734;45.218;36.708;2023-03-29T16:28:02;4.88;75.94
75153;HTU21D;63734;45.218;36.708;2023-03-29T16:30:33;4.89;75.43
75153;HTU21D;63734;45.218;36.708;2023-03-29T16:33:00;4.83;73.99
75153;HTU21D;63734;45.218;36.708;2023-03-29T16:35:33;4.83;75.00
75153;HTU21D;63734;45.218;36.708;2023-03-29T16:38:00;4.80;73.86
75153;HTU21D;63734;45.218;36.708;2023-03-29T16:40:26;4.80;75.30
75153;HTU21D;63734;45.218;36.708;2023-03-29T16:42:56;4.77;74.36
75153;HTU21D;63734;45.218;36.708;2023-03-29T16:45:23;4.77;74.04
75153;HTU21D;63734;45.218;36.708;2023-03-29T16:47:49;4.76;74.68
75153;HTU21D;63734;45.218;36.708;2023-03-29T16:50:17;4.80;75.49
75153;HTU21D;63734;45.218;36.708;2023-03-29T16:52:45;4.81;75.44
75153;HTU21D;63734;45.218;36.708;2023-03-29T16:55:14;4.82;75.38
75153;HTU21D;63734;45.218;36.708;2023-03-29T16:57:47;4.83;74.89
75153;HTU21D;63734;45.218;36.708;2023-03-29T17:00:15;4.87;74.57
75153;HTU21D;63734;45.218;36.708;2023-03-29T17:02:42;4.83;73.41
75153;HTU21D;63734;45.218;36.708;2023-03-29T17:05:10;4.83;73.18
75153;HTU21D;63734;45.218;36.708;2023-03-29T17:07:38;4.83;73.40
75153;HTU21D;63734;45.218;36.708;2023-03-29T17:10:08;4.80;72.03
75153;HTU21D;63734;45.218;36.708;2023-03-29T17:12:34;4.81;72.14
75153;HTU21D;63734;45.218;36.708;2023-03-29T17:15:02;4.80;72.24
75153;HTU21D;63734;45.218;36.708;2023-03-29T17:17:29;4.81;73.25
75153;HTU21D;63734;45.218;36.708;2023-03-29T17:20:00;4.82;72.61
75153;HTU21D;63734;45.218;36.708;2023-03-29T17:22:27;4.82;72.94
75153;HTU21D;63734;45.218;36.708;2023-03-29T17:24:53;4.80;71.89
75153;HTU21D;63734;45.218;36.708;2023-03-29T17:27:19;4.81;72.01
75153;HTU21D;63734;45.218;36.708;2023-03-29T17:29:45;4.78;71.11
75153;HTU21D;63734;45.218;36.708;2023-03-29T17:32:11;4.77;72.95
75153;HTU21D;63734;45.218;36.708;2023-03-29T17:34:37;4.83;73.17
75153;HTU21D;63734;45.218;36.708;2023-03-29T17:37:03;4.80;71.80
75153;HTU21D;63734;45.218;36.708;2023-03-29T17:39:30;4.77;70.88
75153;HTU21D;63734;45.218;36.708;2023-03-29T17:41:56;4.75;70.96
75153;HTU21D;63734;45.218;36.708;2023-03-29T17:44:22;4.71;70.20